Time;durP1;ratioP1;P1;durP2;ratioP2;P2;SDS_P1;SDS_P2;PMS_P1;PMS_P2;Temp;Humidity;BMP_temperature;BMP_pressure;BME280_temperature;BME280_humidity;BME280_pressure;Samples;Min_cycle;Max_cycle;Signal;HPM_P1;HPM_P2
2020/12/16 00:02:27;;;;;;;11.40;7.55;;;7.90;94.30;;;8.23;77.77;100507.41;4951488;28;20083;-85
2020/12/16 00:04:54;;;;;;;12.48;8.00;;;7.80;94.00;;;8.19;78.24;100506.06;4949763;29;20051;-85
2020/12/16 00:07:21;;;;;;;12.73;7.72;;;7.80;94.00;;;8.19;77.87;100516.91;4949864;28;20453;-85
2020/12/16 00:09:48;;;;;;;13.57;8.35;;;7.70;94.10;;;8.16;77.89;100517.22;4950012;29;20059;-85
2020/12/16 00:12:15;;;;;;;12.88;7.90;;;7.70;94.20;;;8.12;78.05;100515.88;4949955;29;20051;-85
2020/12/16 00:14:44;;;;;;;12.30;7.70;;;7.70;94.50;;;8.08;78.07;100514.53;4951152;29;20121;-85
2020/12/16 00:17:11;;;;;;;12.82;8.35;;;7.60;93.80;;;8.03;77.20;100514.19;4949891;29;20114;-85
2020/12/16 00:19:38;;;;;;;13.32;8.00;;;7.50;93.70;;;8.00;77.53;100517.25;4949622;29;20043;-85
2020/12/16 00:22:05;;;;;;;18.48;8.75;;;7.60;94.10;;;7.98;77.91;100513.84;4951006;29;20105;-85
2020/12/16 00:29:23;;;;;;;10.75;6.82;;;7.50;94.50;;;7.89;78.02;100525.69;4933391;29;20086;-85
2020/12/16 00:31:50;;;;;;;13.45;7.78;;;7.40;93.80;;;7.87;78.03;100527.72;4951470;29;20051;-85
2020/12/16 00:34:17;;;;;;;12.77;7.20;;;7.40;94.10;;;7.83;77.62;100528.03;4952772;29;20520;-85
2020/12/16 00:36:45;;;;;;;10.80;7.47;;;7.40;94.10;;;7.81;77.62;100515.69;4952052;28;20070;-85
2020/12/16 00:39:12;;;;;;;10.88;7.40;;;7.40;93.80;;;7.79;77.45;100532.09;4948867;28;20051;-85
2020/12/16 00:41:39;;;;;;;12.63;7.30;;;7.30;94.20;;;7.75;77.38;100529.88;4948486;29;20084;-85
2020/12/16 00:44:07;;;;;;;9.68;6.90;;;7.30;94.10;;;7.75;77.60;100538.88;4948265;28;20046;-85
2020/12/16 00:46:34;;;;;;;17.00;7.78;;;7.30;94.20;;;7.77;77.71;100542.25;4948446;28;20070;-85
2020/12/16 00:49:02;;;;;;;14.52;8.13;;;7.30;94.30;;;7.73;77.72;100535.50;4948357;28;20062;-85
2020/12/16 00:51:29;;;;;;;40.40;10.07;;;7.30;94.50;;;7.71;78.55;100540.22;4942701;28;20052;-85
2020/12/16 00:53:57;;;;;;;26.83;8.57;;;7.30;94.70;;;7.73;78.03;100543.63;4928075;28;20533;-84
2020/12/16 00:56:25;;;;;;;22.75;9.55;;;7.20;94.70;;;7.76;77.78;100547.84;4928992;29;20138;-85
2020/12/16 00:58:52;;;;;;;20.52;9.63;;;7.30;95.00;;;7.71;77.53;100550.19;4927997;29;20122;-84
2020/12/16 01:01:19;;;;;;;18.90;10.80;;;7.20;94.60;;;7.69;77.95;100553.09;4930470;29;20068;-84
2020/12/16 01:03:49;;;;;;;17.38;11.27;;;7.20;94.80;;;7.65;77.77;100546.28;4944731;29;20055;-84
2020/12/16 01:06:15;;;;;;;19.17;10.70;;;7.10;95.00;;;7.72;78.20;100549.19;4929357;29;20052;-85
2020/12/16 01:08:42;;;;;;;20.63;10.95;;;7.20;95.80;;;7.75;78.76;100552.41;4944791;29;20048;-85
2020/12/16 01:11:12;;;;;;;19.83;10.68;;;7.30;96.20;;;7.78;78.42;100565.63;4944825;29;20091;-85
2020/12/16 01:13:39;;;;;;;14.68;9.35;;;7.30;96.30;;;7.77;79.20;100563.09;4928275;29;20186;-85
2020/12/16 01:16:12;;;;;;;16.15;10.32;;;7.30;96.30;;;7.78;79.32;100562.06;4928892;29;20055;-84
2020/12/16 01:18:40;;;;;;;16.73;10.20;;;7.30;96.30;;;7.78;79.22;100568.31;4944491;29;20130;-84
2020/12/16 01:21:11;;;;;;;18.73;10.30;;;7.30;96.40;;;7.78;79.07;100567.50;4944560;29;20055;-85
2020/12/16 01:23:47;;;;;;;15.48;9.90;;;7.40;96.30;;;7.76;79.39;100574.94;4944371;29;20138;-85
2020/12/16 01:26:16;;;;;;;16.85;10.68;;;7.40;96.30;;;7.77;79.86;100582.91;4928570;29;20074;-85
2020/12/16 01:28:54;;;;;;;15.55;10.18;;;7.40;96.30;;;7.81;79.47;100573.44;4944034;29;20044;-85
2020/12/16 01:31:21;;;;;;;18.30;11.05;;;7.40;96.40;;;7.82;79.13;100575.13;4944180;29;20076;-85
2020/12/16 01:33:48;;;;;;;16.80;9.82;;;7.40;96.40;;;7.84;78.97;100572.25;4928073;29;20085;-84
2020/12/16 01:36:38;;;;;;;16.17;10.13;;;7.40;96.50;;;7.89;79.76;100571.75;4928529;29;20059;-85
2020/12/16 01:39:06;;;;;;;19.80;12.23;;;7.50;96.90;;;7.91;79.73;100577.84;4928568;29;20560;-85
2020/12/16 01:41:34;;;;;;;16.38;10.23;;;7.50;97.00;;;7.93;79.26;100575.81;4928156;29;20195;-85
2020/12/16 01:44:11;;;;;;;19.00;11.15;;;7.50;97.00;;;7.90;80.47;100576.16;4928154;29;20062;-85
2020/12/16 01:46:47;;;;;;;15.80;10.50;;;7.60;97.10;;;7.96;80.15;100572.78;4944344;29;20062;-85
2020/12/16 01:49:14;;;;;;;17.00;10.10;;;7.70;97.20;;;7.94;79.88;100566.66;4927818;29;20056;-85
2020/12/16 01:51:44;;;;;;;16.23;9.50;;;7.60;97.00;;;7.93;80.42;100565.00;4942728;29;20529;-85
2020/12/16 01:54:14;;;;;;;15.20;9.48;;;7.60;96.80;;;7.92;80.23;100568.69;4926249;29;20073;-85
2020/12/16 01:56:43;;;;;;;18.35;9.32;;;7.60;96.70;;;7.92;79.93;100566.00;4927997;29;20894;-85
2020/12/16 01:59:25;;;;;;;14.30;9.05;;;7.60;96.60;;;7.93;80.21;100571.25;4928145;29;20434;-85
2020/12/16 02:01:57;;;;;;;;;;;7.60;96.60;;;7.91;79.21;100569.72;4928418;29;20048;-85
2020/12/16 02:04:27;;;;;;;12.57;7.63;;;7.60;96.20;;;7.91;79.60;100567.03;4927885;29;20221;-85
2020/12/16 02:06:58;;;;;;;13.30;8.85;;;7.50;96.00;;;7.87;79.57;100563.78;4928009;29;20058;-85
2020/12/16 02:09:27;;;;;;;13.93;8.70;;;7.60;96.20;;;7.82;79.21;100561.59;4926616;29;20134;-85
2020/12/16 02:12:10;;;;;;;12.77;8.20;;;7.50;95.80;;;7.76;79.03;100562.22;4943977;29;20051;-85
2020/12/16 02:14:41;;;;;;;14.60;9.25;;;7.50;95.40;;;7.80;78.99;100563.59;4927772;29;20075;-85
2020/12/16 02:17:09;;;;;;;20.08;11.23;;;7.50;95.50;;;7.80;79.09;100565.47;4927910;29;20044;-85
2020/12/16 02:19:44;;;;;;;21.40;12.60;;;7.50;96.00;;;7.83;79.51;100565.97;4941213;29;20064;-85
2020/12/16 02:22:15;;;;;;;20.00;11.23;;;7.50;95.90;;;7.82;78.38;100568.84;4926995;29;20059;-84
2020/12/16 02:25:02;;;;;;;18.73;11.00;;;7.50;95.10;;;7.82;79.08;100564.28;4928384;29;20054;-86
2020/12/16 02:27:35;;;;;;;19.48;10.68;;;7.50;95.60;;;7.78;78.95;100568.31;4943779;29;20130;-85
2020/12/16 02:30:11;;;;;;;18.80;10.98;;;7.40;94.80;;;7.72;78.36;100574.41;4929046;29;20055;-85
2020/12/16 02:32:57;;;;;;;19.15;11.15;;;7.40;94.90;;;7.71;78.70;100579.97;4929187;29;20549;-85
2020/12/16 02:35:27;;;;;;;15.95;9.60;;;7.40;95.00;;;7.70;78.54;100576.44;4911968;29;20050;-85
2020/12/16 02:38:05;;;;;;;15.57;10.23;;;7.30;94.80;;;7.67;78.14;100587.59;4927598;29;20706;-85
2020/12/16 02:40:34;;;;;;;17.38;10.90;;;7.30;94.80;;;7.65;78.04;100584.19;4927833;29;20044;-85
2020/12/16 02:43:01;;;;;;;20.45;10.68;;;7.30;94.40;;;7.61;78.28;100578.25;4943664;29;20432;-85
2020/12/16 02:45:29;;;;;;;19.10;10.25;;;7.20;94.30;;;7.56;77.95;100580.63;4943178;29;20054;-85
2020/12/16 02:48:09;;;;;;;18.38;10.75;;;7.20;94.40;;;7.54;78.12;100577.25;4927448;29;20138;-84
2020/12/16 02:50:39;;;;;;;17.75;10.10;;;7.20;94.80;;;7.48;78.22;100575.16;4927690;29;20052;-85
2020/12/16 02:53:06;;;;;;;18.38;9.93;;;7.10;94.60;;;7.45;78.71;100580.91;4927509;29;20048;-85
2020/12/16 02:55:57;;;;;;;16.23;9.52;;;7.10;94.80;;;7.52;78.11;100583.81;4928820;29;20562;-85
2020/12/16 02:58:24;;;;;;;18.23;10.35;;;7.10;94.90;;;7.50;78.22;100583.13;4927652;29;20086;-85
2020/12/16 03:00:52;;;;;;;17.25;10.38;;;7.10;94.70;;;7.47;78.06;100583.47;4956277;28;20474;-85
2020/12/16 03:03:39;;;;;;;17.98;10.10;;;7.00;94.30;;;7.39;77.84;100579.72;4902440;29;20063;-85
2020/12/16 03:06:34;;;;;;;15.32;9.05;;;7.00;94.30;;;7.37;77.09;100570.91;4932641;29;20095;-85
2020/12/16 03:09:07;;;;;;;18.40;9.70;;;6.90;93.90;;;7.32;77.99;100570.53;4946832;29;20054;-85
2020/12/16 03:11:37;;;;;;;19.00;9.88;;;6.90;94.30;;;7.33;77.88;100568.66;4931014;29;20063;-85
2020/12/16 03:14:06;;;;;;;17.83;9.77;;;6.90;94.10;;;7.30;76.96;100564.44;4930677;29;20059;-85
2020/12/16 03:16:33;;;;;;;19.67;9.98;;;6.90;94.20;;;7.26;77.32;100565.78;4930841;29;20056;-85
2020/12/16 03:19:22;;;;;;;16.58;8.95;;;6.80;93.70;;;7.21;76.96;100581.63;4946979;29;20059;-85
2020/12/16 03:21:49;;;;;;;16.95;10.00;;;6.80;93.50;;;7.20;76.81;100579.97;4930901;29;20099;-85
2020/12/16 03:24:24;;;;;;;20.77;10.95;;;6.70;93.80;;;7.23;76.99;100572.38;4946445;29;20113;-84
2020/12/16 03:27:14;;;;;;;17.40;9.05;;;6.70;94.40;;;7.23;76.92;100568.78;4931593;29;20576;-85
2020/12/16 03:29:56;;;;;;;14.25;9.30;;;6.70;94.00;;;7.21;77.19;100568.09;4946383;28;20048;-85
2020/12/16 03:33:01;;;;;;;16.90;9.98;;;6.70;94.40;;;7.20;76.88;100566.44;4908351;29;20448;-85
2020/12/16 03:35:44;;;;;;;16.15;9.80;;;6.70;94.60;;;7.14;77.03;100561.63;4946555;29;20556;-84
2020/12/16 03:38:15;;;;;;;14.38;8.85;;;6.70;93.90;;;7.08;76.95;100565.84;4930404;29;20052;-85
2020/12/16 03:40:46;;;;;;;15.63;9.18;;;6.60;93.90;;;7.04;77.11;100564.47;4930455;29;20051;-85
2020/12/16 03:43:13;;;;;;;16.55;8.93;;;6.60;94.10;;;7.02;77.26;100571.91;4931707;29;20094;-84
2020/12/16 03:45:40;;;;;;;14.77;8.45;;;6.60;93.90;;;6.98;76.88;100571.38;4931652;29;20075;-85
2020/12/16 03:48:08;;;;;;;16.00;9.25;;;6.60;93.80;;;6.95;76.35;100563.59;4930451;29;20044;-85
2020/12/16 03:50:36;;;;;;;13.32;8.82;;;6.50;93.60;;;6.94;76.96;100559.16;4930473;29;20055;-85
2020/12/16 03:53:03;;;;;;;14.00;8.90;;;6.50;93.60;;;6.96;76.90;100551.75;4930093;29;20086;-85
2020/12/16 03:55:47;;;;;;;17.17;9.38;;;6.50;94.20;;;6.98;77.37;100544.31;4930289;29;20051;-85
2020/12/16 03:58:31;;;;;;;15.10;8.65;;;6.50;94.60;;;7.07;77.87;100538.97;4946234;29;20477;-85
2020/12/16 04:01:22;;;;;;;17.20;9.88;;;6.60;95.00;;;7.08;77.59;100533.34;4945858;29;20510;-85
2020/12/16 04:03:51;;;;;;;14.23;9.10;;;6.60;94.80;;;7.04;77.11;100530.16;4945970;29;20095;-85
2020/12/16 04:06:27;;;;;;;16.08;9.80;;;6.60;94.30;;;6.99;76.78;100535.19;4930111;29;20052;-85
2020/12/16 04:08:55;;;;;;;18.50;10.40;;;6.60;94.50;;;6.99;77.78;100535.19;4946048;29;20052;-84
2020/12/16 04:11:37;;;;;;;16.02;9.68;;;6.60;94.90;;;7.08;77.08;100540.63;4930097;29;20118;-85
2020/12/16 04:14:16;;;;;;;13.50;8.90;;;6.60;94.30;;;7.08;76.92;100544.19;4929628;29;20059;-84
2020/12/16 04:16:43;;;;;;;18.08;10.23;;;6.60;94.10;;;7.05;77.00;100556.19;4929977;29;20054;-84
2020/12/16 04:19:14;;;;;;;19.10;11.13;;;6.60;94.40;;;7.08;77.00;100562.28;4947619;29;20048;-86
2020/12/16 04:21:41;;;;;;;16.92;9.63;;;6.50;94.40;;;6.98;76.40;100563.25;4930737;29;20063;-86
2020/12/16 04:24:11;;;;;;;21.30;10.68;;;6.50;93.80;;;6.99;77.24;100564.97;4945073;29;20056;-88
2020/12/16 04:26:54;;;;;;;18.17;9.65;;;6.50;94.70;;;7.00;77.03;100571.22;4945533;29;20051;-86
2020/12/16 04:29:21;;;;;;;16.95;10.35;;;6.50;94.70;;;6.99;77.37;100572.22;4945821;29;20075;-86
2020/12/16 04:31:52;;;;;;;16.60;10.60;;;6.50;94.60;;;7.01;77.55;100576.47;4945893;28;20051;-86
2020/12/16 04:34:23;;;;;;;19.48;9.95;;;6.50;94.80;;;6.97;77.53;100575.09;4929311;29;20142;-87
2020/12/16 04:36:51;;;;;;;16.25;9.85;;;6.50;95.00;;;6.96;77.79;100576.09;4931134;29;20052;-86
2020/12/16 04:39:20;;;;;;;19.73;9.23;;;6.60;95.20;;;6.99;78.49;100573.06;4929437;29;20048;-86
2020/12/16 04:41:52;;;;;;;17.40;10.18;;;6.60;95.30;;;6.98;78.32;100571.38;4929650;29;20055;-87
2020/12/16 04:44:19;;;;;;;16.63;10.20;;;6.60;95.60;;;7.02;78.12;100561.91;4929234;29;20474;-86
2020/12/16 04:46:55;;;;;;;15.48;9.65;;;6.50;95.30;;;7.02;77.51;100561.06;4929386;29;20052;-88
2020/12/16 04:49:30;;;;;;;16.98;10.48;;;6.60;94.90;;;7.00;77.60;100547.69;4929673;29;20166;-87
2020/12/16 04:51:58;;;;;;;16.27;10.93;;;6.60;95.30;;;6.99;77.54;100546.00;4945398;29;20066;-87
2020/12/16 04:54:48;;;;;;;15.75;10.13;;;6.50;95.00;;;6.95;77.17;100544.66;4929727;29;20138;-86
2020/12/16 04:57:20;;;;;;;17.77;9.45;;;6.50;94.70;;;6.92;76.73;100547.66;4929531;29;20051;-87
2020/12/16 04:59:47;;;;;;;13.35;8.95;;;6.40;94.20;;;6.88;76.94;100549.00;4929444;29;20106;-87
2020/12/16 05:02:28;;;;;;;16.05;8.60;;;6.40;93.80;;;6.83;76.04;100552.19;4929049;29;20098;-86
2020/12/16 05:05:28;;;;;;;17.23;8.48;;;6.30;93.40;;;6.84;75.96;100555.72;4929167;29;20147;-86
2020/12/16 05:07:55;;;;;;;15.48;8.88;;;6.20;93.40;;;6.77;75.86;100551.97;4930341;29;20066;-86
2020/12/16 05:10:34;;;;;;;14.93;8.77;;;6.20;93.20;;;6.77;75.53;100557.38;4944921;28;20082;-88
2020/12/16 05:13:07;;;;;;;14.45;8.30;;;6.20;93.60;;;6.74;75.75;100568.50;4944768;29;20057;-86
2020/12/16 05:15:34;;;;;;;14.57;9.35;;;6.20;93.40;;;6.69;76.26;100576.25;4930065;29;20053;-86
2020/12/16 05:18:12;;;;;;;16.20;8.65;;;6.10;93.50;;;6.68;76.27;100580.78;4930369;29;20044;-86
2020/12/16 05:20:41;;;;;;;15.63;9.50;;;6.10;94.00;;;6.68;77.27;100583.50;4930591;29;20540;-86
2020/12/16 05:23:08;;;;;;;16.88;10.30;;;6.20;94.80;;;6.73;77.86;100585.75;4930130;29;20047;-87
2020/12/16 05:25:36;;;;;;;18.02;10.90;;;6.30;95.20;;;6.79;77.93;100582.41;4929286;29;20103;-86
2020/12/16 05:28:04;;;;;;;21.83;11.50;;;6.30;95.40;;;6.80;78.01;100584.97;4928388;29;20114;-86
2020/12/16 05:30:31;;;;;;;17.67;10.27;;;6.30;95.50;;;6.82;78.10;100592.91;4930089;29;20137;-86
2020/12/16 05:33:03;;;;;;;15.30;10.25;;;6.30;95.60;;;6.80;78.28;100584.13;4930015;29;20417;-87
2020/12/16 05:35:34;;;;;;;15.90;10.13;;;6.40;95.90;;;6.85;77.79;100576.34;4929776;29;20112;-87
2020/12/16 05:38:05;;;;;;;14.63;9.90;;;6.40;95.40;;;6.84;77.63;100574.66;4929010;29;20048;-85
2020/12/16 05:40:33;;;;;;;15.50;10.15;;;6.40;95.30;;;6.82;77.57;100576.69;4930065;29;20751;-86
2020/12/16 05:43:00;;;;;;;16.42;10.45;;;6.40;94.90;;;6.77;77.08;100577.16;4930018;29;20039;-86
2020/12/16 05:45:31;;;;;;;19.67;9.60;;;6.30;94.80;;;6.73;77.26;100589.28;4928234;29;20060;-86
2020/12/16 05:48:07;;;;;;;14.00;9.57;;;6.20;94.30;;;6.72;77.36;100575.91;4929837;29;20076;-86
2020/12/16 05:50:41;;;;;;;16.33;10.55;;;6.20;94.60;;;6.69;77.03;100578.97;4944365;29;20079;-86
2020/12/16 05:53:18;;;;;;;16.15;8.88;;;6.30;94.50;;;6.68;77.08;100579.94;4929822;29;20091;-87
2020/12/16 05:55:50;;;;;;;14.15;9.10;;;6.20;94.50;;;6.69;77.29;100576.25;4929588;29;20044;-87
2020/12/16 05:58:18;;;;;;;15.63;9.30;;;6.20;94.30;;;6.70;77.17;100584.22;4930094;29;20047;-87
2020/12/16 06:00:48;;;;;;;18.63;9.55;;;6.10;94.50;;;6.65;76.62;100584.69;4944252;28;20556;-86
2020/12/16 06:03:19;;;;;;;15.63;9.52;;;6.20;94.30;;;6.64;76.65;100577.59;4943049;29;20039;-86
2020/12/16 06:05:50;;;;;;;14.85;8.82;;;6.10;94.40;;;6.63;76.85;100583.97;4948720;29;20057;-88
2020/12/16 06:08:18;;;;;;;20.48;10.38;;;6.10;94.30;;;6.61;77.18;100579.75;4941103;29;20051;-87
2020/12/16 06:10:48;;;;;;;16.10;9.88;;;6.10;94.60;;;6.62;77.21;100581.44;4946998;28;20460;-88
2020/12/16 06:13:18;;;;;;;18.30;10.77;;;6.10;94.80;;;6.64;77.48;100585.69;4948553;29;20035;-87
2020/12/16 06:15:59;;;;;;;14.70;9.50;;;6.10;95.00;;;6.62;77.00;100581.44;4948031;29;20568;-88
2020/12/16 06:18:30;;;;;;;13.82;9.48;;;6.10;94.50;;;6.59;76.53;100585.31;4934455;29;20118;-89
2020/12/16 06:21:00;;;;;;;14.73;9.35;;;6.00;93.80;;;6.54;76.36;100579.50;4947257;29;20063;-89
2020/12/16 06:23:43;;;;;;;17.45;10.52;;;6.00;93.80;;;6.61;76.59;100579.75;4947051;29;20059;-89
2020/12/16 06:26:14;;;;;;;16.00;10.38;;;6.00;94.50;;;6.57;76.45;100573.81;4948262;29;20425;-88
2020/12/16 06:28:42;;;;;;;;;;;6.00;94.20;;;6.57;76.57;100581.06;4947052;29;20052;-89
2020/12/16 06:31:26;;;;;;;19.73;10.80;;;6.00;94.40;;;6.56;76.33;100592.88;4948008;29;20391;-89
2020/12/16 06:34:00;;;;;;;19.13;11.20;;;6.00;94.30;;;6.55;76.61;100591.16;4945114;29;20057;-88
2020/12/16 06:36:30;;;;;;;24.45;12.38;;;6.00;94.50;;;6.53;76.98;100596.75;4948317;28;20058;-88
2020/12/16 06:38:59;;;;;;;22.33;11.45;;;6.00;95.00;;;6.53;77.04;100601.28;4952348;29;20359;-87
2020/12/16 06:41:30;;;;;;;18.38;10.88;;;6.00;95.00;;;6.52;76.69;100608.56;4950449;29;20234;-88
2020/12/16 06:43:58;;;;;;;19.35;11.23;;;5.90;94.70;;;6.51;76.58;100612.28;4951860;29;20783;-88
2020/12/16 06:46:52;;;;;;;18.30;11.05;;;5.90;94.50;;;6.48;76.37;100607.19;4950510;29;20051;-88
2020/12/16 06:49:40;;;;;;;19.60;11.23;;;5.90;94.20;;;6.46;75.87;100606.50;4950013;29;20095;-88
2020/12/16 06:52:13;;;;;;;19.80;11.23;;;5.80;94.20;;;6.45;76.30;100621.00;4950173;29;20138;-88
2020/12/16 06:54:52;;;;;;;21.23;12.30;;;5.80;94.30;;;6.44;76.33;100616.63;4949881;29;20062;-88
2020/12/16 06:57:24;;;;;;;21.40;11.75;;;5.90;94.50;;;6.48;76.36;100611.75;4965690;28;20062;-88
2020/12/16 06:59:53;;;;;;;;;;;5.80;94.20;;;6.50;76.02;100610.56;4966484;28;20440;-88
2020/12/16 07:02:31;;;;;;;20.58;11.63;;;5.90;94.40;;;6.50;75.94;100617.84;4954326;28;20392;-87
2020/12/16 07:05:00;;;;;;;20.25;11.75;;;5.80;94.30;;;6.54;76.13;100624.63;4950093;29;20126;-87
2020/12/16 07:07:46;;;;;;;19.63;10.88;;;5.90;94.60;;;6.49;76.04;100626.94;4949998;29;20413;-88
2020/12/16 07:10:45;;;;;;;19.52;9.90;;;5.80;93.80;;;6.44;75.14;100624.72;4949710;29;20047;-88
2020/12/16 07:13:20;;;;;;;18.38;10.93;;;5.80;93.60;;;6.43;75.73;100626.56;4951346;29;20044;-89
2020/12/16 07:15:53;;;;;;;21.38;12.48;;;5.80;94.20;;;6.45;76.50;100629.09;4943379;28;20382;-88
2020/12/16 07:18:28;;;;;;;23.02;11.27;;;5.80;95.00;;;6.48;76.38;100630.69;4931557;29;20115;-86
2020/12/16 07:21:21;;;;;;;22.13;11.27;;;5.90;94.40;;;6.50;76.45;100621.41;4935099;29;20046;-85
2020/12/16 07:28:24;;;;;;;20.05;12.10;;;5.90;94.70;;;6.50;77.16;100624.09;4943740;28;20568;-86
2020/12/16 07:35:25;;;;;;;21.60;11.70;;;6.00;94.90;;;6.47;76.55;100627.09;5934983;23;20168;31
2020/12/16 07:37:58;;;;;;;22.15;12.25;;;5.90;94.60;;;6.42;77.19;100632.97;4955324;28;20050;-81
2020/12/16 07:40:25;;;;;;;20.60;12.07;;;6.00;95.00;;;6.44;77.34;100630.13;4983512;28;20059;-81
2020/12/16 07:42:52;;;;;;;20.15;12.00;;;6.00;95.00;;;6.46;77.16;100623.56;4983760;28;20046;-81
2020/12/16 07:45:20;;;;;;;20.33;11.40;;;6.00;94.60;;;6.45;76.64;100621.00;4984367;28;20077;-81
2020/12/16 07:47:47;;;;;;;19.25;10.43;;;5.90;94.30;;;6.41;76.39;100623.16;4983515;28;20055;-82
2020/12/16 07:50:13;;;;;;;18.13;10.85;;;5.90;94.20;;;6.44;76.68;100625.56;4984331;28;20043;-81
2020/12/16 07:52:40;;;;;;;19.40;11.60;;;5.90;94.40;;;6.40;77.10;100621.47;4984295;28;20050;-81
2020/12/16 07:55:07;;;;;;;19.83;11.55;;;5.90;94.70;;;6.45;76.57;100623.69;4984598;28;20074;-81
2020/12/16 07:57:36;;;;;;;17.60;10.63;;;5.90;94.90;;;6.45;76.74;100621.00;4984897;28;20070;-81
2020/12/16 08:00:04;;;;;;;19.42;11.23;;;5.90;95.20;;;6.48;77.18;100623.41;4986016;28;20046;-81
2020/12/16 08:02:44;;;;;;;23.63;11.98;;;6.00;95.30;;;6.50;76.68;100618.69;4981781;28;20058;-78
2020/12/16 08:05:15;;;;;;;20.17;10.68;;;6.00;95.40;;;6.48;77.16;100622.56;4986849;28;20058;-82
2020/12/16 08:07:42;;;;;;;19.63;11.77;;;6.00;95.30;;;6.48;77.69;100620.69;4987201;28;20055;-82
2020/12/16 08:10:09;;;;;;;19.77;10.68;;;6.00;95.10;;;6.49;77.16;100625.09;4986402;28;20517;-82
2020/12/16 08:12:41;;;;;;;20.23;11.38;;;6.00;95.20;;;6.44;77.42;100627.44;4986571;28;20050;-82
2020/12/16 08:15:11;;;;;;;21.65;12.25;;;6.00;94.90;;;6.43;77.30;100625.72;4987066;28;20062;-82
2020/12/16 08:17:41;;;;;;;21.17;11.68;;;6.00;95.10;;;6.40;77.35;100626.88;4986802;28;20061;-82
2020/12/16 08:20:19;;;;;;;18.02;11.13;;;6.00;95.00;;;6.42;77.31;100627.56;4986690;28;20392;-82
2020/12/16 08:22:48;;;;;;;19.27;10.45;;;5.90;94.80;;;6.44;76.98;100622.03;4986840;28;20034;-82
2020/12/16 08:25:17;;;;;;;17.50;10.35;;;5.90;94.80;;;6.41;76.59;100627.72;4985673;28;20058;-82
2020/12/16 08:27:46;;;;;;;16.63;10.50;;;5.90;94.60;;;6.40;76.74;100623.34;4985633;28;20127;-82
2020/12/16 08:30:15;;;;;;;14.80;9.65;;;5.90;94.70;;;6.38;76.54;100622.66;4986483;28;20043;-83
2020/12/16 08:33:01;;;;;;;18.45;10.07;;;5.90;94.70;;;6.35;76.76;100622.94;4984902;28;20074;-83
2020/12/16 08:35:31;;;;;;;18.08;9.95;;;5.90;94.90;;;6.34;77.51;100621.22;4983539;28;20146;-82
2020/12/16 08:38:04;;;;;;;20.58;10.30;;;5.90;95.10;;;6.35;77.17;100625.66;4983655;28;20050;-80
2020/12/16 08:40:31;;;;;;;17.77;10.57;;;5.90;95.30;;;6.37;77.80;100619.06;4982159;28;20081;-82
2020/12/16 08:43:16;;;;;;;20.30;10.45;;;5.90;95.30;;;6.33;77.95;100630.34;4982750;28;20065;-81
2020/12/16 08:45:44;;;;;;;19.70;10.90;;;5.90;95.40;;;6.32;78.08;100628.66;4981022;28;20078;-82
2020/12/16 08:48:12;;;;;;;17.50;10.85;;;5.90;95.50;;;6.33;78.25;100620.38;4988819;28;20038;-82
2020/12/16 08:50:39;;;;;;;19.55;11.32;;;6.00;95.80;;;6.33;78.81;100624.97;4999474;28;20069;-81
2020/12/16 08:53:06;;;;;;;19.98;12.25;;;6.00;96.00;;;6.44;79.11;100612.03;4983506;28;20069;-80
2020/12/16 08:55:37;;;;;;;21.08;12.70;;;6.10;96.20;;;6.48;78.61;100609.88;4989909;28;20039;-79
2020/12/16 08:58:04;;;;;;;25.27;14.68;;;6.10;96.40;;;6.54;79.11;100616.53;4987328;28;20048;-79
2020/12/16 09:00:34;;;;;;;27.73;15.05;;;6.20;96.40;;;6.52;79.62;100613.13;5001094;28;20038;-80
2020/12/16 09:03:04;;;;;;;28.38;14.52;;;6.30;96.60;;;6.55;79.65;100607.38;5001770;28;20069;-80
2020/12/16 09:05:34;;;;;;;29.63;16.58;;;6.30;96.80;;;6.58;79.74;100607.94;5000867;28;20046;-79
2020/12/16 09:08:19;;;;;;;28.70;16.83;;;6.40;96.70;;;6.62;80.32;100603.91;5001065;28;20053;-80
2020/12/16 09:10:56;;;;;;;29.27;16.35;;;6.50;96.80;;;6.64;80.67;100604.63;4984191;28;20113;-80
2020/12/16 09:13:23;;;;;;;30.20;16.73;;;6.50;96.90;;;6.69;80.97;100614.13;4981635;28;20049;-80
2020/12/16 09:15:51;;;;;;;29.02;16.15;;;6.60;97.00;;;6.70;81.32;100603.16;4981643;28;20046;-80
2020/12/16 09:18:26;;;;;;;25.63;15.70;;;6.60;97.00;;;6.72;81.65;100606.53;4982000;28;20073;-80
2020/12/16 09:20:54;;;;;;;25.10;14.45;;;6.70;97.00;;;6.78;81.84;100610.47;4985197;28;20047;-80
2020/12/16 09:23:24;;;;;;;28.77;15.52;;;6.80;97.40;;;6.85;81.04;100611.53;5000689;28;20121;-80
2020/12/16 09:25:55;;;;;;;26.85;13.77;;;6.80;97.00;;;6.92;81.35;100607.19;5000601;28;20057;-80
2020/12/16 09:28:31;;;;;;;26.02;14.88;;;6.90;96.70;;;6.96;82.32;100603.16;5000880;28;20074;-80
2020/12/16 09:31:10;;;;;;;22.27;13.77;;;7.00;96.70;;;7.04;81.91;100607.75;5000634;28;20050;-80
2020/12/16 09:33:36;;;;;;;24.17;12.75;;;7.10;96.90;;;7.05;82.75;100610.31;5001517;28;20050;-80
2020/12/16 09:36:04;;;;;;;28.33;13.70;;;7.20;97.50;;;7.13;81.98;100617.63;4998854;28;20065;-79
2020/12/16 09:38:31;;;;;;;23.95;12.20;;;7.20;97.40;;;7.18;83.01;100615.31;4982073;28;20050;-80
2020/12/16 09:40:59;;;;;;;16.75;10.02;;;7.30;97.80;;;7.24;82.65;100620.06;4999669;28;20069;-79
2020/12/16 09:43:40;;;;;;;20.75;12.10;;;7.40;98.20;;;7.26;83.41;100617.22;5000352;28;20053;-79
2020/12/16 09:46:15;;;;;;;23.20;11.95;;;7.40;98.30;;;7.33;83.26;100612.84;5000520;28;20057;-79
2020/12/16 09:48:43;;;;;;;16.58;10.57;;;7.50;97.90;;;7.37;84.85;100614.22;4961615;28;20083;-80
2020/12/16 09:51:16;;;;;;;21.20;12.05;;;7.70;99.20;;;7.42;84.19;100617.31;4978348;28;20047;-79
2020/12/16 09:53:43;;;;;;;19.92;10.80;;;7.70;99.00;;;7.50;83.94;100618.34;4981468;28;20051;-79
2020/12/16 09:56:23;;;;;;;16.77;10.25;;;7.80;99.00;;;7.53;85.11;100612.59;4981312;28;20058;-80
2020/12/16 09:58:49;;;;;;;14.25;8.52;;;7.90;99.80;;;7.61;84.08;100607.22;4981210;28;20078;-79
2020/12/16 10:01:16;;;;;;;13.00;7.05;;;8.00;99.90;;;7.67;84.82;100606.56;4979685;28;20058;-79
2020/12/16 10:03:43;;;;;;;12.90;7.35;;;8.10;99.90;;;7.72;85.19;100596.09;4980754;28;20569;-79
2020/12/16 10:06:14;;;;;;;11.43;7.10;;;8.20;99.90;;;7.77;84.46;100601.88;4980176;28;20062;-80
2020/12/16 10:08:42;;;;;;;11.88;7.10;;;8.30;99.90;;;7.83;86.11;100586.81;4979930;28;20053;-79
2020/12/16 10:11:13;;;;;;;10.38;6.30;;;8.40;99.90;;;7.90;87.34;100581.56;4980467;28;20046;-80
2020/12/16 10:13:42;;;;;;;10.60;6.53;;;8.60;99.90;;;7.97;86.84;100598.88;4979667;28;20043;-79
2020/12/16 10:16:10;;;;;;;12.82;7.45;;;8.70;99.90;;;8.02;86.49;100591.09;4980217;28;20070;-79
2020/12/16 10:18:37;;;;;;;11.93;7.90;;;8.80;99.90;;;8.09;88.08;100586.72;4980178;28;20038;-80
2020/12/16 10:21:04;;;;;;;11.13;6.68;;;8.90;99.90;;;8.14;87.40;100584.31;4979757;28;20050;-80
2020/12/16 10:23:33;;;;;;;13.70;6.95;;;8.90;99.90;;;8.20;88.53;100578.22;4980330;28;20051;-79
2020/12/16 10:26:00;;;;;;;11.20;7.07;;;9.10;99.90;;;8.26;89.35;100579.41;4979670;28;20043;-79
2020/12/16 10:28:26;;;;;;;12.00;7.30;;;9.20;99.90;;;8.30;88.78;100575.38;4979923;28;20055;-79
2020/12/16 10:30:53;;;;;;;11.32;7.07;;;9.30;99.90;;;8.37;88.10;100578.25;4979752;28;20057;-79
2020/12/16 10:33:20;;;;;;;10.95;6.35;;;9.30;99.90;;;8.41;88.98;100572.38;4980299;28;20043;-79
2020/12/16 10:35:48;;;;;;;12.27;7.15;;;9.40;99.90;;;8.46;88.67;100571.00;4979749;28;20043;-80
2020/12/16 10:38:15;;;;;;;11.20;6.90;;;9.50;99.90;;;8.53;89.82;100572.00;4979663;28;20097;-79
2020/12/16 10:40:42;;;;;;;9.57;6.18;;;9.60;99.90;;;8.57;90.65;100574.22;4979720;28;20042;-80
2020/12/16 10:43:09;;;;;;;10.93;7.22;;;9.60;99.90;;;8.59;89.65;100569.47;4980504;28;20255;-81
2020/12/16 10:45:36;;;;;;;8.95;6.03;;;9.70;99.90;;;8.66;89.65;100574.22;4982119;28;20047;-80
2020/12/16 10:48:04;;;;;;;10.30;6.75;;;9.80;99.90;;;8.70;89.97;100564.72;4980341;28;20047;-79
2020/12/16 10:50:31;;;;;;;9.10;5.65;;;9.80;99.90;;;8.75;89.78;100559.63;4981488;28;20043;-81
2020/12/16 10:52:58;;;;;;;9.30;5.82;;;9.90;99.90;;;8.81;91.51;100553.50;4978520;28;20078;-84